Aérodrome :
LOGIN :

S'inscrire | Disclaimer

   EN    FR    IT 

 










Légende :    VFR   VFR Marginal   IFR   IFR Intensif   IFR Très Intensif
Visi : 
Plafond : 
>= 8 km
>= 3000ft
5 à 8 km
1000 à 3000 ft
1500m à 5 km
500 à 1000 ft
800 à 1500m
200 à 500 ft
< 800m
< 200 ft
Symboles :   Orages  Brouillard  Fortes neiges  Fortes précipitations  Vent > 20 kt
SIGMETs :   Divers  Orages  Givrage  Turbulence  Onde Orograph.  Cendres Volcan.







- Altitude de l'aérodrome : 19 ft
- Code IATA : VTS


EVVA - Ventspils Int.

DERNIER METAR :
  • 252150Z AUTO 33006KT CAVOK 01/M02 Q1012

METARs EXPIRÉS :
  • 252120Z AUTO 34007KT CAVOK 02/M02 Q1012
  • 252050Z AUTO 34008KT CAVOK 02/M02 Q1012
  • 252020Z AUTO 34010KT CAVOK 02/M02 Q1012
  • 251950Z AUTO 35010KT CAVOK 02/M02 Q1012
  • 251920Z AUTO 35012KT 330V030 9999 FEW024 02/M02 Q1012
  • 251850Z AUTO 34014KT CAVOK 02/M02 Q1012

TAF N/A
Pas de NOTAMs connus pour ce terrain.



MET'MAP, la Météo Aéronautique d'un coup d'oeil ! - Copyright ORBIFLY Décembre 2007 - Disclaimer

ORBIFLY MET'MAP TEAM :

Programmation & Développement : Alexandra Zaïnal
Conception & Développement : Baudouin d'Aumeries
Co-Programmation & Développement : Marc-Olivier Méhu
Soutien technique & logistique : Manuel Goepfert

Contact : metmap@orbifly.com




SOURCES & CREDITS :

   NOAA